createdAt,value
2017-10-19T00:01:05.831Z,17.20
2017-10-19T00:03:33.285Z,14.70
2017-10-19T00:06:00.754Z,14.43
2017-10-19T00:08:36.389Z,13.98
2017-10-19T00:11:03.850Z,13.85
2017-10-19T00:13:31.304Z,15.10
2017-10-19T00:15:58.768Z,14.80
2017-10-19T00:18:26.773Z,15.88
2017-10-19T00:20:55.052Z,15.50
2017-10-19T00:23:22.512Z,13.18
2017-10-19T00:25:51.145Z,16.17
2017-10-19T00:28:23.471Z,15.75
2017-10-19T00:30:50.944Z,14.30
2017-10-19T00:33:19.183Z,15.50
2017-10-19T00:35:47.450Z,15.05
2017-10-19T00:38:17.274Z,15.50
2017-10-19T00:40:50.785Z,13.98
2017-10-19T00:43:19.043Z,15.75
2017-10-19T00:45:46.506Z,13.50
2017-10-19T00:48:13.975Z,13.60
2017-10-19T00:50:41.427Z,13.45
2017-10-19T00:53:08.887Z,13.10
2017-10-19T00:55:36.358Z,14.05
2017-10-19T00:58:04.584Z,12.77
2017-10-19T01:00:32.062Z,15.57
2017-10-19T01:02:59.523Z,12.32
2017-10-19T01:05:27.021Z,11.80
2017-10-19T01:07:54.497Z,13.52
2017-10-19T01:10:22.905Z,11.23
2017-10-19T01:12:50.416Z,11.32
2017-10-19T01:15:18.652Z,12.02
2017-10-19T01:17:46.178Z,10.25
2017-10-19T01:20:14.360Z,11.40
2017-10-19T01:22:41.974Z,10.05
2017-10-19T01:25:10.235Z,11.40
2017-10-19T01:27:37.707Z,10.82
2017-10-19T01:30:05.955Z,10.98
2017-10-19T01:32:33.430Z,12.88
2017-10-19T01:35:01.650Z,10.55
2017-10-19T01:37:29.118Z,10.10
2017-10-19T01:39:56.604Z,10.95
2017-10-19T01:42:24.063Z,10.52
2017-10-19T01:44:51.539Z,10.82
2017-10-19T01:47:19.770Z,10.45
2017-10-19T01:49:59.185Z,10.55
2017-10-19T01:52:26.648Z,12.70
2017-10-19T01:54:54.106Z,9.80
2017-10-19T01:57:21.570Z,12.20
2017-10-19T01:59:49.023Z,11.20
2017-10-19T02:02:16.482Z,9.95
2017-10-19T02:04:43.943Z,11.15
2017-10-19T02:07:11.401Z,9.65
2017-10-19T02:09:38.889Z,10.02
2017-10-19T02:12:06.349Z,9.68
2017-10-19T02:14:33.801Z,10.45
2017-10-19T02:17:01.267Z,11.27
2017-10-19T02:19:29.492Z,9.68
2017-10-19T02:21:56.942Z,11.10
2017-10-19T02:24:24.422Z,11.30
2017-10-19T02:26:51.892Z,9.60
2017-10-19T02:29:19.355Z,9.35
2017-10-19T02:31:46.807Z,10.15
2017-10-19T02:34:14.258Z,8.95
2017-10-19T02:36:41.737Z,8.52
2017-10-19T02:39:09.927Z,11.43
2017-10-19T02:41:38.150Z,11.02
2017-10-19T02:44:05.649Z,9.95
2017-10-19T02:46:33.105Z,10.30
2017-10-19T02:49:00.598Z,10.10
2017-10-19T02:51:28.048Z,9.68
2017-10-19T02:53:55.508Z,9.70
2017-10-19T02:56:22.992Z,9.27
2017-10-19T02:58:50.471Z,9.52
2017-10-19T03:01:17.942Z,10.07
2017-10-19T03:03:46.166Z,8.93
2017-10-19T03:06:13.666Z,9.75
2017-10-19T03:08:41.131Z,10.23
2017-10-19T03:11:08.595Z,9.95
2017-10-19T03:13:36.836Z,10.25
2017-10-19T03:16:04.288Z,9.60
2017-10-19T03:18:31.749Z,9.65
2017-10-19T03:20:59.234Z,11.23
2017-10-19T03:23:26.704Z,9.68
2017-10-19T03:25:54.170Z,9.25
2017-10-19T03:28:21.629Z,10.90
2017-10-19T03:30:49.153Z,11.48
2017-10-19T03:33:16.630Z,10.45
2017-10-19T03:35:44.155Z,10.93
2017-10-19T03:38:11.665Z,9.80
2017-10-19T03:40:39.157Z,10.18
2017-10-19T03:43:06.658Z,10.23
2017-10-19T03:45:34.128Z,11.18
2017-10-19T03:48:01.615Z,10.65
2017-10-19T03:50:29.113Z,10.70
2017-10-19T03:52:56.610Z,10.98
2017-10-19T03:55:24.159Z,9.60
2017-10-19T03:57:51.700Z,10.65
2017-10-19T04:00:19.276Z,10.80
2017-10-19T04:02:46.755Z,8.82
2017-10-19T04:05:14.294Z,10.02
2017-10-19T04:07:41.791Z,10.88
2017-10-19T04:10:09.303Z,10.68
2017-10-19T04:12:36.797Z,10.45
2017-10-19T04:15:04.394Z,10.57
2017-10-19T04:17:32.117Z,12.05
2017-10-19T04:19:59.596Z,10.25
2017-10-19T04:22:27.093Z,10.15
2017-10-19T04:24:55.362Z,9.80
2017-10-19T04:27:22.943Z,12.02
2017-10-19T04:29:50.666Z,10.90
2017-10-19T04:32:18.159Z,10.63
2017-10-19T04:34:45.689Z,11.30
2017-10-19T04:37:13.118Z,10.50
2017-10-19T04:39:40.618Z,11.90
2017-10-19T04:42:08.098Z,11.35
2017-10-19T04:44:35.622Z,10.35
2017-10-19T04:47:03.109Z,10.70
2017-10-19T04:49:30.570Z,10.63
2017-10-19T04:51:58.032Z,11.32
2017-10-19T04:54:25.489Z,12.00
2017-10-19T04:56:52.932Z,12.30
2017-10-19T04:59:20.433Z,11.43
2017-10-19T05:01:47.915Z,13.52
2017-10-19T05:04:15.458Z,12.57
2017-10-19T05:06:42.963Z,12.07
2017-10-19T05:09:10.426Z,11.65
2017-10-19T05:11:37.882Z,11.80
2017-10-19T05:23:11.618Z,10.45
2017-10-19T05:25:45.631Z,11.38
2017-10-19T06:13:48.902Z,12.13
2017-10-19T06:16:38.511Z,11.77
2017-10-19T06:19:06.803Z,14.30
2017-10-19T06:24:49.563Z,12.75
2017-10-19T06:27:25.335Z,12.20
2017-10-19T06:32:48.428Z,15.02
2017-10-19T06:35:23.285Z,13.62
2017-10-19T06:38:00.640Z,14.60
2017-10-19T06:40:28.517Z,14.80
2017-10-19T06:43:15.122Z,13.00
2017-10-19T06:45:44.843Z,13.90
2017-10-19T06:48:29.733Z,14.95
2017-10-19T06:51:33.166Z,15.68
2017-10-19T06:54:04.080Z,15.68
2017-10-19T06:56:31.783Z,16.58
2017-10-19T06:59:00.531Z,16.40
2017-10-19T07:01:28.072Z,16.60
2017-10-19T07:03:58.617Z,17.87
2017-10-19T07:06:35.728Z,18.27
2017-10-19T07:09:05.354Z,18.45
2017-10-19T07:11:33.057Z,20.52
2017-10-19T07:14:00.703Z,22.10
2017-10-19T07:16:33.243Z,22.70
2017-10-19T07:19:02.758Z,24.30
2017-10-19T07:21:30.276Z,24.48
2017-10-19T07:23:57.816Z,24.83
2017-10-19T07:26:27.293Z,25.73
2017-10-19T07:28:58.244Z,27.30
2017-10-19T07:31:25.800Z,26.77
2017-10-19T07:33:53.300Z,27.62
2017-10-19T07:36:20.919Z,27.67
2017-10-19T07:38:48.488Z,26.92
2017-10-19T07:41:15.985Z,27.08
2017-10-19T07:43:44.534Z,27.75
2017-10-19T07:46:12.020Z,28.60
2017-10-19T07:48:39.523Z,25.95
2017-10-19T07:51:07.094Z,26.17
2017-10-19T07:53:34.722Z,24.85
2017-10-19T07:56:02.257Z,23.62
2017-10-19T07:58:29.771Z,24.87
2017-10-19T08:00:58.048Z,24.42
2017-10-19T08:03:26.318Z,23.85
2017-10-19T08:05:54.781Z,24.27
2017-10-19T08:08:22.301Z,24.33
2017-10-19T08:10:49.837Z,22.70
2017-10-19T08:13:17.501Z,22.30
2017-10-19T08:15:45.041Z,22.37
2017-10-19T08:18:13.417Z,22.00
2017-10-19T08:20:40.930Z,22.20
2017-10-19T08:23:08.480Z,23.17
2017-10-19T08:25:36.013Z,23.92
2017-10-19T08:28:03.516Z,22.83
2017-10-19T08:30:36.231Z,20.85
2017-10-19T08:33:06.048Z,22.23
2017-10-19T08:35:40.138Z,22.92
2017-10-19T08:38:08.343Z,23.87
2017-10-19T08:40:38.141Z,24.58
2017-10-19T08:43:05.762Z,23.95
2017-10-19T08:45:33.290Z,24.02
2017-10-19T08:48:01.654Z,23.58
2017-10-19T08:50:31.174Z,23.62
2017-10-19T08:52:58.683Z,24.05
2017-10-19T08:55:26.273Z,24.05
2017-10-19T08:57:59.092Z,24.80
2017-10-19T09:00:37.461Z,25.12
2017-10-19T09:17:14.761Z,27.60
2017-10-19T09:19:44.006Z,24.50
2017-10-19T09:22:13.245Z,27.60
2017-10-19T09:24:40.875Z,25.90
2017-10-19T09:27:08.499Z,28.67
2017-10-19T09:29:36.584Z,27.87
2017-10-19T09:32:04.315Z,28.27
2017-10-19T09:34:32.746Z,29.33
2017-10-19T09:37:04.220Z,27.15
2017-10-19T09:39:32.109Z,29.25
2017-10-19T09:42:03.680Z,29.80
2017-10-19T09:44:31.592Z,30.08
2017-10-19T09:47:03.032Z,23.90
2017-10-19T09:49:30.651Z,28.30
2017-10-19T09:51:59.096Z,30.62
2017-10-19T09:54:26.733Z,32.28
2017-10-19T09:56:54.395Z,29.40
2017-10-19T09:59:21.992Z,32.45
2017-10-19T10:01:50.147Z,28.08
2017-10-19T10:04:18.790Z,28.02
2017-10-19T10:06:48.446Z,29.87
2017-10-19T10:09:19.078Z,33.25
2017-10-19T10:11:47.478Z,33.70
2017-10-19T10:14:15.328Z,31.92
2017-10-19T10:16:43.911Z,30.88
2017-10-19T10:19:11.530Z,30.55
2017-10-19T10:21:41.174Z,31.48
2017-10-19T10:24:09.534Z,32.08
2017-10-19T10:26:37.214Z,33.88
2017-10-19T10:29:04.814Z,31.77
2017-10-19T10:31:32.395Z,34.38
2017-10-19T10:34:00.323Z,31.83
2017-10-19T10:36:33.384Z,32.83
2017-10-19T10:39:13.363Z,39.53
2017-10-19T10:41:42.867Z,35.20
2017-10-19T10:44:21.190Z,36.40
2017-10-19T10:46:50.550Z,35.58
2017-10-19T10:49:18.540Z,36.58
2017-10-19T10:51:53.875Z,33.38
2017-10-19T10:54:27.079Z,35.22
2017-10-19T10:56:56.684Z,34.45
2017-10-19T10:59:27.121Z,33.10
2017-10-19T11:02:04.192Z,34.97
2017-10-19T11:04:31.852Z,37.70
2017-10-19T11:06:59.503Z,35.00
2017-10-19T11:09:27.024Z,37.83
2017-10-19T11:11:56.984Z,37.53
2017-10-19T11:14:25.619Z,36.78
2017-10-19T11:16:54.019Z,39.90
2017-10-19T11:19:23.415Z,37.60
2017-10-19T11:21:50.991Z,36.13
2017-10-19T11:24:18.493Z,33.30
2017-10-19T11:26:46.003Z,35.83
2017-10-19T11:29:17.741Z,37.53
2017-10-19T11:31:47.041Z,33.30
2017-10-19T11:34:16.179Z,36.83
2017-10-19T11:36:44.025Z,34.70
2017-10-19T11:39:11.536Z,36.13
2017-10-19T11:41:39.014Z,36.83
2017-10-19T11:44:06.723Z,36.67
2017-10-19T11:46:34.279Z,35.90
2017-10-19T11:49:01.759Z,35.77
2017-10-19T11:51:29.284Z,38.03
2017-10-19T11:53:56.847Z,36.50
2017-10-19T11:56:24.403Z,37.90
2017-10-19T11:58:51.958Z,35.73
2017-10-19T12:01:19.584Z,37.77
2017-10-19T12:03:47.647Z,41.87
2017-10-19T12:06:15.246Z,36.00
2017-10-19T12:08:44.843Z,35.10
2017-10-19T12:11:12.432Z,38.73
2017-10-19T12:13:39.992Z,37.07
2017-10-19T12:16:07.492Z,34.87
2017-10-19T12:18:35.002Z,37.03
2017-10-19T12:21:03.250Z,36.10
2017-10-19T12:23:31.876Z,36.40
2017-10-19T12:26:02.189Z,38.77
2017-10-19T12:28:29.823Z,35.23
2017-10-19T12:30:57.320Z,36.83
2017-10-19T12:33:24.979Z,36.37
2017-10-19T12:35:53.438Z,42.00
2017-10-19T12:38:26.955Z,37.63
2017-10-19T12:40:57.811Z,39.07
2017-10-19T12:43:25.460Z,37.37
2017-10-19T12:45:56.440Z,35.87
2017-10-19T12:48:24.063Z,40.13
2017-10-19T12:50:52.842Z,40.00
2017-10-19T12:53:34.402Z,36.30
2017-10-19T12:58:54.852Z,38.40
2017-10-19T13:01:48.261Z,40.70
2017-10-19T13:04:16.309Z,35.08
2017-10-19T13:06:45.128Z,37.63
2017-10-19T13:34:40.153Z,36.75
2017-10-19T13:40:09.241Z,36.50
2017-10-19T13:45:43.543Z,37.72
2017-10-19T13:48:18.084Z,35.00
2017-10-19T14:17:47.788Z,39.42
2017-10-19T14:20:22.289Z,41.00
2017-10-19T14:25:34.760Z,46.15
2017-10-19T14:32:34.664Z,44.50
2017-10-19T14:35:35.875Z,46.58
2017-10-19T14:38:21.462Z,44.42
2017-10-19T14:40:54.203Z,48.20
2017-10-19T14:43:36.539Z,46.25
2017-10-19T14:46:20.664Z,50.55
2017-10-19T14:48:56.496Z,46.83
2017-10-19T14:57:17.288Z,47.75
2017-10-19T15:24:50.426Z,50.12
2017-10-19T15:33:22.148Z,49.28
2017-10-19T16:05:52.948Z,51.33
2017-10-19T16:13:43.158Z,49.42
2017-10-19T16:16:26.041Z,51.72
2017-10-19T16:18:59.711Z,53.95
2017-10-19T16:21:35.730Z,52.53
2017-10-19T16:24:04.597Z,54.30
2017-10-19T16:26:32.912Z,55.42
2017-10-19T16:29:01.373Z,55.05
2017-10-19T16:31:28.979Z,50.25
2017-10-19T16:33:56.490Z,51.58
2017-10-19T16:36:24.076Z,54.67
2017-10-19T16:38:52.621Z,54.25
2017-10-19T16:41:20.253Z,49.90
2017-10-19T16:43:48.022Z,50.15
2017-10-19T16:46:18.334Z,51.97
2017-10-19T16:48:48.589Z,50.72
2017-10-19T16:51:16.408Z,53.92
2017-10-19T16:53:44.188Z,50.63
2017-10-19T16:56:13.704Z,50.80
2017-10-19T16:58:52.317Z,51.25
2017-10-19T17:01:24.569Z,50.88
2017-10-19T17:03:54.831Z,50.40
2017-10-19T17:06:23.394Z,51.28
2017-10-19T17:08:52.912Z,43.95
2017-10-19T17:11:21.504Z,55.83
2017-10-19T17:13:50.661Z,52.90
2017-10-19T17:16:21.524Z,52.97
2017-10-19T17:24:34.529Z,54.00
2017-10-19T17:27:08.409Z,54.33
2017-10-19T17:29:37.980Z,55.47
2017-10-19T17:32:06.513Z,55.97
2017-10-19T17:34:35.417Z,55.45
2017-10-19T17:37:04.954Z,56.90
2017-10-19T17:39:32.740Z,55.35
2017-10-19T17:42:06.406Z,55.60
2017-10-19T17:44:36.854Z,57.03
2017-10-19T19:00:12.919Z,60.47
2017-10-19T19:14:49.064Z,62.85
2017-10-19T19:17:19.911Z,62.80
2017-10-19T19:22:44.355Z,58.95
2017-10-19T19:25:12.044Z,60.22
2017-10-19T19:27:39.800Z,55.95
2017-10-19T19:30:08.396Z,62.03
2017-10-19T19:32:36.087Z,57.80
2017-10-19T19:35:05.694Z,58.53
2017-10-19T19:37:33.355Z,58.35
2017-10-19T19:40:01.507Z,56.90
2017-10-19T19:42:48.411Z,56.95
2017-10-19T19:47:56.763Z,63.08
2017-10-19T19:50:24.539Z,61.88
2017-10-19T19:52:53.702Z,59.58
2017-10-19T19:55:21.869Z,59.90
2017-10-19T19:57:49.555Z,56.80
2017-10-19T20:00:17.429Z,58.65
2017-10-19T20:02:47.670Z,61.53
2017-10-19T20:05:18.063Z,59.15
2017-10-19T20:07:49.183Z,56.15
2017-10-19T20:10:16.856Z,60.65
2017-10-19T20:12:45.311Z,57.97
2017-10-19T20:15:13.012Z,62.00
2017-10-19T20:17:42.225Z,61.55
2017-10-19T20:20:10.262Z,60.08
2017-10-19T20:22:37.993Z,60.28
2017-10-19T20:25:07.214Z,61.90
2017-10-19T20:27:34.862Z,60.03
2017-10-19T20:30:04.011Z,59.20
2017-10-19T20:32:49.459Z,58.28
2017-10-19T20:35:18.440Z,54.05
2017-10-19T20:37:53.172Z,60.00
2017-10-19T20:41:07.614Z,55.65
2017-10-19T20:44:01.144Z,60.33
2017-10-19T20:46:30.750Z,58.55
2017-10-19T20:48:58.292Z,57.62
2017-10-19T20:51:26.582Z,58.63
2017-10-19T20:53:54.132Z,54.97
2017-10-19T20:56:23.208Z,55.55
2017-10-19T20:58:51.555Z,58.40
2017-10-19T21:01:19.824Z,59.17
2017-10-19T21:03:47.457Z,56.30
2017-10-19T21:06:15.599Z,57.30
2017-10-19T21:08:44.067Z,57.55
2017-10-19T21:11:11.844Z,58.65
2017-10-19T21:13:39.366Z,57.60
2017-10-19T21:16:06.885Z,55.70
2017-10-19T21:18:35.234Z,56.37
2017-10-19T21:21:02.958Z,55.35
2017-10-19T21:23:30.987Z,58.03
2017-10-19T21:25:58.753Z,54.50
2017-10-19T21:28:26.703Z,60.20
2017-10-19T21:31:02.018Z,58.35
2017-10-19T21:33:30.242Z,54.50
2017-10-19T21:35:57.784Z,59.83
2017-10-19T21:38:27.442Z,57.35
2017-10-19T21:40:55.065Z,60.28
2017-10-19T21:43:30.978Z,56.40
2017-10-19T21:45:59.705Z,60.58
2017-10-19T21:48:27.265Z,59.70
2017-10-19T21:50:56.350Z,57.00
2017-10-19T21:53:23.934Z,57.22
2017-10-19T22:34:00.892Z,55.33
2017-10-19T22:39:24.716Z,59.92
2017-10-19T22:41:56.004Z,59.03
2017-10-19T22:44:25.984Z,56.35
2017-10-19T22:46:59.369Z,53.45
2017-10-19T22:49:57.319Z,58.15
